sensor_id;sensor_type;location;lat;lon;timestamp;P1;durP1;ratioP1;P2;durP2;ratioP2
64483;SDS011;50862;51.642;7.964;2022-09-29T00:00:57;4.57;;;4.17;;
64483;SDS011;50862;51.642;7.964;2022-09-29T00:03:27;4.47;;;4.13;;
64483;SDS011;50862;51.642;7.964;2022-09-29T00:05:56;4.93;;;4.63;;
64483;SDS011;50862;51.642;7.964;2022-09-29T00:08:26;5.03;;;4.73;;
64483;SDS011;50862;51.642;7.964;2022-09-29T00:10:55;3.83;;;3.63;;
64483;SDS011;50862;51.642;7.964;2022-09-29T00:13:24;4.10;;;3.90;;
64483;SDS011;50862;51.642;7.964;2022-09-29T00:15:57;4.00;;;3.70;;
64483;SDS011;50862;51.642;7.964;2022-09-29T00:18:27;4.20;;;3.90;;
64483;SDS011;50862;51.642;7.964;2022-09-29T00:20:57;3.70;;;3.43;;
64483;SDS011;50862;51.642;7.964;2022-09-29T00:23:26;4.30;;;3.97;;
64483;SDS011;50862;51.642;7.964;2022-09-29T00:25:59;4.00;;;3.70;;
64483;SDS011;50862;51.642;7.964;2022-09-29T00:28:29;5.07;;;3.90;;
64483;SDS011;50862;51.642;7.964;2022-09-29T00:30:59;4.27;;;3.97;;
64483;SDS011;50862;51.642;7.964;2022-09-29T00:33:29;4.33;;;4.03;;
64483;SDS011;50862;51.642;7.964;2022-09-29T00:35:59;4.23;;;3.93;;
64483;SDS011;50862;51.642;7.964;2022-09-29T00:38:28;3.77;;;3.47;;
64483;SDS011;50862;51.642;7.964;2022-09-29T00:40:57;3.60;;;3.40;;
64483;SDS011;50862;51.642;7.964;2022-09-29T00:46:19;3.70;;;3.40;;
64483;SDS011;50862;51.642;7.964;2022-09-29T00:48:53;3.37;;;3.17;;
64483;SDS011;50862;51.642;7.964;2022-09-29T00:51:25;4.20;;;3.87;;
64483;SDS011;50862;51.642;7.964;2022-09-29T00:53:55;3.97;;;3.67;;
64483;SDS011;50862;51.642;7.964;2022-09-29T00:56:24;3.93;;;3.63;;
64483;SDS011;50862;51.642;7.964;2022-09-29T00:58:54;3.23;;;3.03;;
64483;SDS011;50862;51.642;7.964;2022-09-29T01:01:28;3.10;;;2.90;;
64483;SDS011;50862;51.642;7.964;2022-09-29T01:03:58;4.50;;;3.70;;
64483;SDS011;50862;51.642;7.964;2022-09-29T01:06:31;4.00;;;3.70;;
64483;SDS011;50862;51.642;7.964;2022-09-29T01:09:02;3.63;;;3.07;;
64483;SDS011;50862;51.642;7.964;2022-09-29T01:11:32;3.83;;;3.53;;
64483;SDS011;50862;51.642;7.964;2022-09-29T01:14:02;3.60;;;3.40;;
64483;SDS011;50862;51.642;7.964;2022-09-29T01:16:35;3.30;;;3.10;;
64483;SDS011;50862;51.642;7.964;2022-09-29T01:19:09;3.27;;;3.17;;
64483;SDS011;50862;51.642;7.964;2022-09-29T01:21:42;2.87;;;2.67;;
64483;SDS011;50862;51.642;7.964;2022-09-29T01:24:27;2.70;;;2.50;;
64483;SDS011;50862;51.642;7.964;2022-09-29T01:27:18;2.80;;;2.70;;
64483;SDS011;50862;51.642;7.964;2022-09-29T01:32:44;2.77;;;2.67;;
64483;SDS011;50862;51.642;7.964;2022-09-29T01:35:25;3.93;;;3.67;;
64483;SDS011;50862;51.642;7.964;2022-09-29T01:38:06;3.37;;;3.10;;
64483;SDS011;50862;51.642;7.964;2022-09-29T01:40:43;2.70;;;2.60;;
64483;SDS011;50862;51.642;7.964;2022-09-29T01:43:17;3.47;;;3.17;;
64483;SDS011;50862;51.642;7.964;2022-09-29T01:45:51;3.90;;;3.47;;
64483;SDS011;50862;51.642;7.964;2022-09-29T01:48:30;8.30;;;4.07;;
64483;SDS011;50862;51.642;7.964;2022-09-29T01:51:02;3.50;;;3.30;;
64483;SDS011;50862;51.642;7.964;2022-09-29T01:53:34;3.40;;;3.20;;
64483;SDS011;50862;51.642;7.964;2022-09-29T01:56:08;3.30;;;3.10;;
64483;SDS011;50862;51.642;7.964;2022-09-29T01:58:41;3.30;;;3.10;;
64483;SDS011;50862;51.642;7.964;2022-09-29T02:01:15;2.90;;;2.70;;
64483;SDS011;50862;51.642;7.964;2022-09-29T02:03:48;2.57;;;2.37;;
64483;SDS011;50862;51.642;7.964;2022-09-29T02:06:22;2.50;;;2.37;;
64483;SDS011;50862;51.642;7.964;2022-09-29T02:08:53;2.60;;;2.50;;
64483;SDS011;50862;51.642;7.964;2022-09-29T02:11:22;2.63;;;2.53;;
64483;SDS011;50862;51.642;7.964;2022-09-29T02:13:53;2.50;;;2.40;;
64483;SDS011;50862;51.642;7.964;2022-09-29T02:16:23;2.30;;;2.20;;
64483;SDS011;50862;51.642;7.964;2022-09-29T02:18:56;2.40;;;2.30;;
64483;SDS011;50862;51.642;7.964;2022-09-29T02:21:28;2.50;;;2.40;;
64483;SDS011;50862;51.642;7.964;2022-09-29T02:23:56;2.80;;;2.70;;
64483;SDS011;50862;51.642;7.964;2022-09-29T02:26:25;2.97;;;2.83;;
64483;SDS011;50862;51.642;7.964;2022-09-29T02:28:57;2.70;;;2.60;;
64483;SDS011;50862;51.642;7.964;2022-09-29T02:31:25;3.00;;;2.90;;
64483;SDS011;50862;51.642;7.964;2022-09-29T02:33:55;3.20;;;2.90;;
64483;SDS011;50862;51.642;7.964;2022-09-29T02:36:25;3.07;;;2.87;;
64483;SDS011;50862;51.642;7.964;2022-09-29T02:39:00;2.87;;;2.67;;
64483;SDS011;50862;51.642;7.964;2022-09-29T02:41:34;2.73;;;2.63;;
64483;SDS011;50862;51.642;7.964;2022-09-29T02:44:20;2.47;;;2.37;;
64483;SDS011;50862;51.642;7.964;2022-09-29T02:46:56;3.27;;;3.07;;
64483;SDS011;50862;51.642;7.964;2022-09-29T02:49:36;2.80;;;2.70;;
64483;SDS011;50862;51.642;7.964;2022-09-29T02:52:24;3.17;;;2.97;;
64483;SDS011;50862;51.642;7.964;2022-09-29T02:55:04;2.80;;;2.60;;
64483;SDS011;50862;51.642;7.964;2022-09-29T02:57:41;2.90;;;2.77;;
64483;SDS011;50862;51.642;7.964;2022-09-29T03:00:11;3.57;;;3.20;;
64483;SDS011;50862;51.642;7.964;2022-09-29T03:02:41;2.87;;;2.77;;
64483;SDS011;50862;51.642;7.964;2022-09-29T03:05:12;3.13;;;2.93;;
64483;SDS011;50862;51.642;7.964;2022-09-29T03:07:42;2.80;;;2.70;;
64483;SDS011;50862;51.642;7.964;2022-09-29T03:10:11;2.83;;;2.70;;
64483;SDS011;50862;51.642;7.964;2022-09-29T03:12:40;3.03;;;2.83;;
64483;SDS011;50862;51.642;7.964;2022-09-29T03:15:08;2.73;;;2.63;;
64483;SDS011;50862;51.642;7.964;2022-09-29T03:17:38;3.33;;;3.13;;
64483;SDS011;50862;51.642;7.964;2022-09-29T03:20:06;3.13;;;2.93;;
64483;SDS011;50862;51.642;7.964;2022-09-29T03:22:37;2.90;;;2.70;;
64483;SDS011;50862;51.642;7.964;2022-09-29T03:25:05;2.70;;;2.60;;
64483;SDS011;50862;51.642;7.964;2022-09-29T03:27:34;3.30;;;3.00;;
64483;SDS011;50862;51.642;7.964;2022-09-29T03:30:04;3.07;;;2.87;;
64483;SDS011;50862;51.642;7.964;2022-09-29T03:32:32;2.87;;;2.67;;
64483;SDS011;50862;51.642;7.964;2022-09-29T03:35:01;4.87;;;2.70;;
64483;SDS011;50862;51.642;7.964;2022-09-29T03:37:29;3.17;;;2.93;;
64483;SDS011;50862;51.642;7.964;2022-09-29T03:39:59;3.30;;;3.10;;
64483;SDS011;50862;51.642;7.964;2022-09-29T03:42:27;3.43;;;3.23;;
64483;SDS011;50862;51.642;7.964;2022-09-29T03:44:55;3.30;;;3.10;;
64483;SDS011;50862;51.642;7.964;2022-09-29T03:47:23;3.13;;;2.93;;
64483;SDS011;50862;51.642;7.964;2022-09-29T03:49:52;3.70;;;3.40;;
64483;SDS011;50862;51.642;7.964;2022-09-29T03:52:20;2.57;;;2.47;;
64483;SDS011;50862;51.642;7.964;2022-09-29T03:54:48;2.77;;;2.57;;
64483;SDS011;50862;51.642;7.964;2022-09-29T03:57:18;2.90;;;2.70;;
64483;SDS011;50862;51.642;7.964;2022-09-29T03:59:46;2.40;;;2.20;;
64483;SDS011;50862;51.642;7.964;2022-09-29T04:02:14;2.47;;;2.37;;
64483;SDS011;50862;51.642;7.964;2022-09-29T04:04:45;3.27;;;3.07;;
64483;SDS011;50862;51.642;7.964;2022-09-29T04:07:13;3.20;;;3.00;;
64483;SDS011;50862;51.642;7.964;2022-09-29T04:09:41;2.73;;;2.53;;
64483;SDS011;50862;51.642;7.964;2022-09-29T04:12:10;3.43;;;3.13;;
64483;SDS011;50862;51.642;7.964;2022-09-29T04:14:40;6.30;;;3.43;;
64483;SDS011;50862;51.642;7.964;2022-09-29T04:17:08;2.90;;;2.70;;
64483;SDS011;50862;51.642;7.964;2022-09-29T04:19:37;3.40;;;3.10;;
64483;SDS011;50862;51.642;7.964;2022-09-29T04:22:05;3.20;;;2.90;;
64483;SDS011;50862;51.642;7.964;2022-09-29T04:24:34;3.20;;;2.80;;
64483;SDS011;50862;51.642;7.964;2022-09-29T04:27:03;3.03;;;2.83;;
64483;SDS011;50862;51.642;7.964;2022-09-29T04:29:31;2.93;;;2.73;;
64483;SDS011;50862;51.642;7.964;2022-09-29T04:32:01;2.90;;;2.70;;
64483;SDS011;50862;51.642;7.964;2022-09-29T04:34:31;3.20;;;2.97;;
64483;SDS011;50862;51.642;7.964;2022-09-29T04:36:59;3.30;;;3.10;;
64483;SDS011;50862;51.642;7.964;2022-09-29T04:39:28;3.13;;;2.93;;
64483;SDS011;50862;51.642;7.964;2022-09-29T04:41:56;3.73;;;3.43;;
64483;SDS011;50862;51.642;7.964;2022-09-29T04:44:24;3.53;;;3.23;;
64483;SDS011;50862;51.642;7.964;2022-09-29T04:46:52;5.13;;;3.43;;
64483;SDS011;50862;51.642;7.964;2022-09-29T04:49:22;3.50;;;3.20;;
64483;SDS011;50862;51.642;7.964;2022-09-29T04:51:50;2.80;;;2.60;;
64483;SDS011;50862;51.642;7.964;2022-09-29T04:54:19;3.13;;;2.93;;
64483;SDS011;50862;51.642;7.964;2022-09-29T04:56:47;3.27;;;2.87;;
64483;SDS011;50862;51.642;7.964;2022-09-29T04:59:15;3.07;;;2.87;;
64483;SDS011;50862;51.642;7.964;2022-09-29T05:01:44;3.63;;;3.33;;
64483;SDS011;50862;51.642;7.964;2022-09-29T05:04:12;9.10;;;3.00;;
64483;SDS011;50862;51.642;7.964;2022-09-29T05:06:42;2.83;;;2.63;;
64483;SDS011;50862;51.642;7.964;2022-09-29T05:09:10;2.87;;;2.67;;
64483;SDS011;50862;51.642;7.964;2022-09-29T05:11:39;2.90;;;2.70;;
64483;SDS011;50862;51.642;7.964;2022-09-29T05:14:07;4.33;;;3.10;;
64483;SDS011;50862;51.642;7.964;2022-09-29T05:16:35;3.70;;;3.40;;
64483;SDS011;50862;51.642;7.964;2022-09-29T05:19:04;3.13;;;2.93;;
64483;SDS011;50862;51.642;7.964;2022-09-29T05:21:32;3.00;;;2.80;;
64483;SDS011;50862;51.642;7.964;2022-09-29T05:24:02;2.87;;;2.67;;
64483;SDS011;50862;51.642;7.964;2022-09-29T05:26:30;3.00;;;2.80;;
64483;SDS011;50862;51.642;7.964;2022-09-29T05:28:59;3.53;;;3.33;;
64483;SDS011;50862;51.642;7.964;2022-09-29T05:31:27;2.43;;;2.33;;
64483;SDS011;50862;51.642;7.964;2022-09-29T05:33:55;3.17;;;2.80;;
64483;SDS011;50862;51.642;7.964;2022-09-29T05:36:24;5.60;;;3.63;;
64483;SDS011;50862;51.642;7.964;2022-09-29T05:38:52;3.03;;;2.83;;
64483;SDS011;50862;51.642;7.964;2022-09-29T05:41:22;3.70;;;3.03;;
64483;SDS011;50862;51.642;7.964;2022-09-29T05:43:51;6.43;;;3.30;;
64483;SDS011;50862;51.642;7.964;2022-09-29T05:46:21;4.10;;;3.20;;
64483;SDS011;50862;51.642;7.964;2022-09-29T05:48:50;4.77;;;3.30;;
64483;SDS011;50862;51.642;7.964;2022-09-29T05:51:19;3.27;;;3.07;;
64483;SDS011;50862;51.642;7.964;2022-09-29T05:53:49;6.63;;;3.37;;
64483;SDS011;50862;51.642;7.964;2022-09-29T05:56:18;7.20;;;3.23;;
64483;SDS011;50862;51.642;7.964;2022-09-29T05:58:49;3.47;;;3.20;;
64483;SDS011;50862;51.642;7.964;2022-09-29T06:01:18;7.03;;;3.67;;
64483;SDS011;50862;51.642;7.964;2022-09-29T06:03:48;3.17;;;2.87;;
64483;SDS011;50862;51.642;7.964;2022-09-29T06:06:18;4.17;;;3.77;;
64483;SDS011;50862;51.642;7.964;2022-09-29T06:08:48;3.70;;;3.40;;
64483;SDS011;50862;51.642;7.964;2022-09-29T06:11:17;3.90;;;3.47;;
64483;SDS011;50862;51.642;7.964;2022-09-29T06:13:47;4.30;;;3.47;;
64483;SDS011;50862;51.642;7.964;2022-09-29T06:16:18;3.27;;;3.07;;
64483;SDS011;50862;51.642;7.964;2022-09-29T06:18:48;4.30;;;3.90;;
64483;SDS011;50862;51.642;7.964;2022-09-29T06:21:17;3.50;;;3.30;;
64483;SDS011;50862;51.642;7.964;2022-09-29T06:23:46;4.27;;;3.97;;
64483;SDS011;50862;51.642;7.964;2022-09-29T06:26:15;4.17;;;3.70;;
64483;SDS011;50862;51.642;7.964;2022-09-29T06:28:50;9.27;;;4.30;;
64483;SDS011;50862;51.642;7.964;2022-09-29T06:31:19;5.27;;;4.13;;
64483;SDS011;50862;51.642;7.964;2022-09-29T06:33:48;4.17;;;3.77;;
64483;SDS011;50862;51.642;7.964;2022-09-29T06:36:17;4.50;;;4.10;;
64483;SDS011;50862;51.642;7.964;2022-09-29T06:39:04;4.80;;;4.30;;
64483;SDS011;50862;51.642;7.964;2022-09-29T06:41:32;5.80;;;4.63;;
64483;SDS011;50862;51.642;7.964;2022-09-29T06:44:02;5.77;;;4.77;;
64483;SDS011;50862;51.642;7.964;2022-09-29T06:46:30;9.03;;;5.63;;
64483;SDS011;50862;51.642;7.964;2022-09-29T06:48:58;8.00;;;4.83;;
64483;SDS011;50862;51.642;7.964;2022-09-29T06:51:27;5.30;;;4.73;;
64483;SDS011;50862;51.642;7.964;2022-09-29T06:54:10;5.50;;;4.47;;
64483;SDS011;50862;51.642;7.964;2022-09-29T06:56:38;4.90;;;4.50;;
64483;SDS011;50862;51.642;7.964;2022-09-29T06:59:08;5.73;;;4.80;;
64483;SDS011;50862;51.642;7.964;2022-09-29T07:01:36;7.37;;;5.03;;
64483;SDS011;50862;51.642;7.964;2022-09-29T07:04:04;5.67;;;5.17;;
64483;SDS011;50862;51.642;7.964;2022-09-29T07:06:33;8.80;;;5.53;;
64483;SDS011;50862;51.642;7.964;2022-09-29T07:09:01;8.20;;;6.53;;
64483;SDS011;50862;51.642;7.964;2022-09-29T07:11:29;10.10;;;6.10;;
64483;SDS011;50862;51.642;7.964;2022-09-29T07:13:57;10.20;;;6.53;;
64483;SDS011;50862;51.642;7.964;2022-09-29T07:16:27;8.17;;;6.10;;
64483;SDS011;50862;51.642;7.964;2022-09-29T07:18:55;7.27;;;6.57;;
64483;SDS011;50862;51.642;7.964;2022-09-29T07:21:24;12.73;;;7.23;;
64483;SDS011;50862;51.642;7.964;2022-09-29T07:23:52;7.70;;;6.90;;
64483;SDS011;50862;51.642;7.964;2022-09-29T07:26:26;11.53;;;7.57;;
64483;SDS011;50862;51.642;7.964;2022-09-29T07:28:55;12.33;;;6.67;;
64483;SDS011;50862;51.642;7.964;2022-09-29T07:31:23;8.10;;;7.27;;
64483;SDS011;50862;51.642;7.964;2022-09-29T07:33:53;9.23;;;7.97;;
64483;SDS011;50862;51.642;7.964;2022-09-29T07:36:23;8.90;;;7.67;;
64483;SDS011;50862;51.642;7.964;2022-09-29T07:38:51;9.60;;;8.07;;
64483;SDS011;50862;51.642;7.964;2022-09-29T07:41:20;8.90;;;7.40;;
64483;SDS011;50862;51.642;7.964;2022-09-29T07:43:50;9.70;;;7.90;;
64483;SDS011;50862;51.642;7.964;2022-09-29T07:46:18;9.30;;;8.23;;
64483;SDS011;50862;51.642;7.964;2022-09-29T07:48:47;11.80;;;8.90;;
64483;SDS011;50862;51.642;7.964;2022-09-29T07:51:17;12.07;;;8.47;;
64483;SDS011;50862;51.642;7.964;2022-09-29T07:53:46;9.47;;;8.17;;
64483;SDS011;50862;51.642;7.964;2022-09-29T07:56:15;13.73;;;9.30;;
64483;SDS011;50862;51.642;7.964;2022-09-29T07:58:44;12.30;;;8.73;;
64483;SDS011;50862;51.642;7.964;2022-09-29T08:01:14;12.50;;;9.83;;
64483;SDS011;50862;51.642;7.964;2022-09-29T08:03:48;10.23;;;9.00;;
64483;SDS011;50862;51.642;7.964;2022-09-29T08:06:19;11.03;;;8.67;;
64483;SDS011;50862;51.642;7.964;2022-09-29T08:08:48;8.70;;;7.90;;
64483;SDS011;50862;51.642;7.964;2022-09-29T08:11:29;9.70;;;8.77;;
64483;SDS011;50862;51.642;7.964;2022-09-29T08:13:58;9.37;;;8.47;;
64483;SDS011;50862;51.642;7.964;2022-09-29T08:16:27;11.07;;;8.67;;
64483;SDS011;50862;51.642;7.964;2022-09-29T08:18:56;11.63;;;8.57;;
64483;SDS011;50862;51.642;7.964;2022-09-29T08:21:25;10.50;;;9.37;;
64483;SDS011;50862;51.642;7.964;2022-09-29T08:23:54;9.20;;;8.30;;
64483;SDS011;50862;51.642;7.964;2022-09-29T08:26:23;10.53;;;9.40;;
64483;SDS011;50862;51.642;7.964;2022-09-29T08:29:08;8.80;;;7.90;;
64483;SDS011;50862;51.642;7.964;2022-09-29T08:31:41;8.27;;;7.47;;
64483;SDS011;50862;51.642;7.964;2022-09-29T08:34:10;9.50;;;8.67;;
64483;SDS011;50862;51.642;7.964;2022-09-29T08:36:40;10.33;;;8.93;;
64483;SDS011;50862;51.642;7.964;2022-09-29T08:39:08;9.70;;;8.80;;
64483;SDS011;50862;51.642;7.964;2022-09-29T08:41:47;10.03;;;9.03;;
64483;SDS011;50862;51.642;7.964;2022-09-29T08:44:19;9.13;;;8.30;;
64483;SDS011;50862;51.642;7.964;2022-09-29T08:47:04;10.20;;;8.13;;
64483;SDS011;50862;51.642;7.964;2022-09-29T08:49:41;11.43;;;9.27;;
64483;SDS011;50862;51.642;7.964;2022-09-29T08:52:15;12.50;;;8.83;;
64483;SDS011;50862;51.642;7.964;2022-09-29T08:54:46;14.20;;;8.83;;
64483;SDS011;50862;51.642;7.964;2022-09-29T08:57:19;11.83;;;9.00;;
64483;SDS011;50862;51.642;7.964;2022-09-29T08:59:49;9.90;;;9.03;;
64483;SDS011;50862;51.642;7.964;2022-09-29T09:02:30;11.50;;;8.90;;
64483;SDS011;50862;51.642;7.964;2022-09-29T09:05:27;9.70;;;8.30;;
64483;SDS011;50862;51.642;7.964;2022-09-29T09:08:04;9.17;;;8.27;;
64483;SDS011;50862;51.642;7.964;2022-09-29T09:10:38;10.73;;;9.67;;
64483;SDS011;50862;51.642;7.964;2022-09-29T09:13:18;10.53;;;9.63;;
64483;SDS011;50862;51.642;7.964;2022-09-29T09:16:00;10.30;;;9.40;;
64483;SDS011;50862;51.642;7.964;2022-09-29T09:18:40;12.27;;;11.33;;
64483;SDS011;50862;51.642;7.964;2022-09-29T09:21:37;10.93;;;9.93;;
64483;SDS011;50862;51.642;7.964;2022-09-29T09:24:13;12.23;;;11.07;;
64483;SDS011;50862;51.642;7.964;2022-09-29T09:26:48;11.90;;;10.87;;
64483;SDS011;50862;51.642;7.964;2022-09-29T09:29:17;12.73;;;11.47;;
64483;SDS011;50862;51.642;7.964;2022-09-29T09:31:51;13.80;;;12.67;;
64483;SDS011;50862;51.642;7.964;2022-09-29T09:34:26;10.97;;;10.17;;
64483;SDS011;50862;51.642;7.964;2022-09-29T09:37:10;11.82;;;10.88;;
64483;SDS011;50862;51.642;7.964;2022-09-29T09:39:45;12.90;;;11.65;;
64483;SDS011;50862;51.642;7.964;2022-09-29T09:42:19;11.30;;;10.40;;
64483;SDS011;50862;51.642;7.964;2022-09-29T09:44:51;10.60;;;9.90;;
64483;SDS011;50862;51.642;7.964;2022-09-29T09:47:24;12.65;;;11.52;;
64483;SDS011;50862;51.642;7.964;2022-09-29T09:49:56;11.48;;;10.45;;
64483;SDS011;50862;51.642;7.964;2022-09-29T09:52:27;11.82;;;10.75;;
64483;SDS011;50862;51.642;7.964;2022-09-29T09:55:02;11.95;;;11.18;;
64483;SDS011;50862;51.642;7.964;2022-09-29T10:00:27;10.10;;;9.40;;
64483;SDS011;50862;51.642;7.964;2022-09-29T10:03:00;9.93;;;9.32;;
64483;SDS011;50862;51.642;7.964;2022-09-29T10:05:31;10.63;;;9.73;;
64483;SDS011;50862;51.642;7.964;2022-09-29T10:08:04;10.80;;;10.00;;
64483;SDS011;50862;51.642;7.964;2022-09-29T10:10:37;11.13;;;10.32;;
64483;SDS011;50862;51.642;7.964;2022-09-29T10:13:23;11.07;;;9.43;;
64483;SDS011;50862;51.642;7.964;2022-09-29T10:15:53;9.75;;;9.05;;
64483;SDS011;50862;51.642;7.964;2022-09-29T10:18:24;9.57;;;8.95;;
64483;SDS011;50862;51.642;7.964;2022-09-29T10:20:57;9.57;;;8.85;;
64483;SDS011;50862;51.642;7.964;2022-09-29T10:23:26;10.77;;;9.88;;
64483;SDS011;50862;51.642;7.964;2022-09-29T10:26:03;9.50;;;8.85;;
64483;SDS011;50862;51.642;7.964;2022-09-29T10:28:37;10.45;;;9.73;;
64483;SDS011;50862;51.642;7.964;2022-09-29T10:31:15;9.02;;;8.43;;
64483;SDS011;50862;51.642;7.964;2022-09-29T10:33:46;9.52;;;8.82;;
64483;SDS011;50862;51.642;7.964;2022-09-29T10:36:17;9.45;;;8.60;;
64483;SDS011;50862;51.642;7.964;2022-09-29T10:38:47;8.98;;;8.40;;
64483;SDS011;50862;51.642;7.964;2022-09-29T10:41:19;8.95;;;8.45;;
64483;SDS011;50862;51.642;7.964;2022-09-29T10:43:48;9.27;;;8.57;;
64483;SDS011;50862;51.642;7.964;2022-09-29T10:46:34;9.38;;;8.82;;
64483;SDS011;50862;51.642;7.964;2022-09-29T10:49:08;8.77;;;8.27;;
64483;SDS011;50862;51.642;7.964;2022-09-29T10:51:39;9.13;;;8.48;;
64483;SDS011;50862;51.642;7.964;2022-09-29T10:54:09;9.77;;;8.98;;
64483;SDS011;50862;51.642;7.964;2022-09-29T10:56:46;10.65;;;9.63;;
64483;SDS011;50862;51.642;7.964;2022-09-29T10:59:15;10.25;;;9.55;;
64483;SDS011;50862;51.642;7.964;2022-09-29T11:01:45;10.00;;;9.23;;
64483;SDS011;50862;51.642;7.964;2022-09-29T11:04:17;8.98;;;8.38;;
64483;SDS011;50862;51.642;7.964;2022-09-29T11:06:49;11.00;;;10.15;;
64483;SDS011;50862;51.642;7.964;2022-09-29T11:09:25;11.63;;;10.63;;
64483;SDS011;50862;51.642;7.964;2022-09-29T11:11:58;11.10;;;10.40;;
64483;SDS011;50862;51.642;7.964;2022-09-29T11:14:39;9.43;;;8.93;;
64483;SDS011;50862;51.642;7.964;2022-09-29T11:17:19;9.85;;;9.15;;
64483;SDS011;50862;51.642;7.964;2022-09-29T11:19:50;11.15;;;10.45;;
64483;SDS011;50862;51.642;7.964;2022-09-29T11:25:42;10.05;;;9.45;;
64483;SDS011;50862;51.642;7.964;2022-09-29T11:28:31;9.77;;;9.15;;
64483;SDS011;50862;51.642;7.964;2022-09-29T11:31:14;8.55;;;8.05;;
64483;SDS011;50862;51.642;7.964;2022-09-29T11:33:53;8.75;;;8.13;;
64483;SDS011;50862;51.642;7.964;2022-09-29T11:36:33;8.65;;;8.13;;
64483;SDS011;50862;51.642;7.964;2022-09-29T11:39:11;8.95;;;8.30;;
64483;SDS011;50862;51.642;7.964;2022-09-29T11:42:08;8.98;;;8.48;;
64483;SDS011;50862;51.642;7.964;2022-09-29T11:44:56;9.00;;;8.30;;
64483;SDS011;50862;51.642;7.964;2022-09-29T11:50:37;9.32;;;8.57;;
64483;SDS011;50862;51.642;7.964;2022-09-29T11:53:18;8.30;;;7.53;;
64483;SDS011;50862;51.642;7.964;2022-09-29T11:56:02;9.35;;;8.68;;
64483;SDS011;50862;51.642;7.964;2022-09-29T11:58:55;8.43;;;7.65;;
64483;SDS011;50862;51.642;7.964;2022-09-29T12:01:47;8.73;;;8.02;;
64483;SDS011;50862;51.642;7.964;2022-09-29T12:04:31;9.10;;;8.55;;
64483;SDS011;50862;51.642;7.964;2022-09-29T12:07:10;9.00;;;8.25;;
64483;SDS011;50862;51.642;7.964;2022-09-29T12:09:53;7.93;;;7.43;;
64483;SDS011;50862;51.642;7.964;2022-09-29T12:12:35;10.07;;;8.13;;
64483;SDS011;50862;51.642;7.964;2022-09-29T12:15:14;7.97;;;7.47;;
64483;SDS011;50862;51.642;7.964;2022-09-29T12:17:52;8.85;;;8.27;;
64483;SDS011;50862;51.642;7.964;2022-09-29T12:20:25;8.82;;;8.25;;
64483;SDS011;50862;51.642;7.964;2022-09-29T12:22:57;8.43;;;7.82;;
64483;SDS011;50862;51.642;7.964;2022-09-29T12:25:31;8.13;;;7.40;;
64483;SDS011;50862;51.642;7.964;2022-09-29T12:28:04;7.55;;;7.05;;
64483;SDS011;50862;51.642;7.964;2022-09-29T12:30:40;7.95;;;7.43;;
64483;SDS011;50862;51.642;7.964;2022-09-29T12:33:14;7.65;;;7.05;;
64483;SDS011;50862;51.642;7.964;2022-09-29T12:35:50;7.20;;;6.80;;
64483;SDS011;50862;51.642;7.964;2022-09-29T12:38:24;7.53;;;7.05;;
64483;SDS011;50862;51.642;7.964;2022-09-29T12:41:00;6.20;;;5.90;;
64483;SDS011;50862;51.642;7.964;2022-09-29T12:43:40;6.75;;;6.35;;
64483;SDS011;50862;51.642;7.964;2022-09-29T12:46:16;7.13;;;5.60;;
64483;SDS011;50862;51.642;7.964;2022-09-29T12:48:54;5.72;;;5.43;;
64483;SDS011;50862;51.642;7.964;2022-09-29T12:51:31;8.18;;;5.28;;
64483;SDS011;50862;51.642;7.964;2022-09-29T12:54:05;5.28;;;5.07;;
64483;SDS011;50862;51.642;7.964;2022-09-29T12:56:42;5.43;;;5.13;;
64483;SDS011;50862;51.642;7.964;2022-09-29T12:59:14;7.07;;;6.57;;
64483;SDS011;50862;51.642;7.964;2022-09-29T13:01:50;6.03;;;5.70;;
64483;SDS011;50862;51.642;7.964;2022-09-29T13:10:22;5.65;;;5.45;;
64483;SDS011;50862;51.642;7.964;2022-09-29T13:13:19;5.18;;;4.78;;
64483;SDS011;50862;51.642;7.964;2022-09-29T13:16:12;5.32;;;5.03;;
64483;SDS011;50862;51.642;7.964;2022-09-29T13:22:26;5.82;;;5.53;;
64483;SDS011;50862;51.642;7.964;2022-09-29T13:25:08;4.95;;;4.72;;
64483;SDS011;50862;51.642;7.964;2022-09-29T13:27:47;5.55;;;5.18;;
64483;SDS011;50862;51.642;7.964;2022-09-29T13:30:17;5.85;;;5.63;;
64483;SDS011;50862;51.642;7.964;2022-09-29T13:32:48;6.15;;;5.65;;
64483;SDS011;50862;51.642;7.964;2022-09-29T13:35:19;5.72;;;5.32;;
64483;SDS011;50862;51.642;7.964;2022-09-29T13:37:51;7.97;;;7.07;;
64483;SDS011;50862;51.642;7.964;2022-09-29T13:40:22;7.00;;;6.43;;
64483;SDS011;50862;51.642;7.964;2022-09-29T13:42:54;5.72;;;4.95;;
64483;SDS011;50862;51.642;7.964;2022-09-29T13:51:20;5.65;;;5.35;;
64483;SDS011;50862;51.642;7.964;2022-09-29T14:02:48;7.57;;;7.07;;
64483;SDS011;50862;51.642;7.964;2022-09-29T14:05:38;6.90;;;6.45;;
64483;SDS011;50862;51.642;7.964;2022-09-29T14:08:14;7.15;;;6.75;;
64483;SDS011;50862;51.642;7.964;2022-09-29T14:10:52;6.57;;;6.28;;
64483;SDS011;50862;51.642;7.964;2022-09-29T14:13:31;6.90;;;6.60;;
64483;SDS011;50862;51.642;7.964;2022-09-29T14:16:13;7.07;;;6.75;;
64483;SDS011;50862;51.642;7.964;2022-09-29T14:18:51;9.32;;;8.52;;
64483;SDS011;50862;51.642;7.964;2022-09-29T14:27:27;7.80;;;7.30;;
64483;SDS011;50862;51.642;7.964;2022-09-29T14:30:08;7.03;;;6.72;;
64483;SDS011;50862;51.642;7.964;2022-09-29T14:32:42;7.97;;;7.45;;
64483;SDS011;50862;51.642;7.964;2022-09-29T14:35:16;7.60;;;6.75;;
64483;SDS011;50862;51.642;7.964;2022-09-29T14:37:51;8.68;;;7.97;;
64483;SDS011;50862;51.642;7.964;2022-09-29T14:40:26;8.57;;;7.97;;
64483;SDS011;50862;51.642;7.964;2022-09-29T14:43:02;9.27;;;8.60;;
64483;SDS011;50862;51.642;7.964;2022-09-29T14:45:31;9.20;;;8.52;;
64483;SDS011;50862;51.642;7.964;2022-09-29T14:48:38;7.32;;;6.82;;
64483;SDS011;50862;51.642;7.964;2022-09-29T14:51:33;7.50;;;6.95;;
64483;SDS011;50862;51.642;7.964;2022-09-29T14:54:24;6.60;;;6.03;;
64483;SDS011;50862;51.642;7.964;2022-09-29T14:57:14;6.28;;;5.88;;
64483;SDS011;50862;51.642;7.964;2022-09-29T15:00:03;6.65;;;6.25;;
64483;SDS011;50862;51.642;7.964;2022-09-29T15:02:40;7.20;;;6.80;;
64483;SDS011;50862;51.642;7.964;2022-09-29T15:05:12;7.45;;;7.05;;
64483;SDS011;50862;51.642;7.964;2022-09-29T15:07:42;6.75;;;6.25;;
64483;SDS011;50862;51.642;7.964;2022-09-29T15:10:19;6.50;;;6.20;;
64483;SDS011;50862;51.642;7.964;2022-09-29T15:12:49;6.50;;;6.15;;
64483;SDS011;50862;51.642;7.964;2022-09-29T15:15:32;8.02;;;7.53;;
64483;SDS011;50862;51.642;7.964;2022-09-29T15:18:07;7.38;;;6.65;;
64483;SDS011;50862;51.642;7.964;2022-09-29T15:20:49;6.15;;;5.85;;
64483;SDS011;50862;51.642;7.964;2022-09-29T15:23:28;8.55;;;8.05;;
64483;SDS011;50862;51.642;7.964;2022-09-29T15:26:23;7.88;;;7.38;;
64483;SDS011;50862;51.642;7.964;2022-09-29T15:28:56;7.72;;;7.13;;
64483;SDS011;50862;51.642;7.964;2022-09-29T15:31:27;7.25;;;6.78;;
64483;SDS011;50862;51.642;7.964;2022-09-29T15:33:59;7.35;;;7.05;;
64483;SDS011;50862;51.642;7.964;2022-09-29T15:36:30;6.80;;;6.35;;
64483;SDS011;50862;51.642;7.964;2022-09-29T15:39:03;6.72;;;6.43;;
64483;SDS011;50862;51.642;7.964;2022-09-29T15:41:32;6.53;;;6.07;;
64483;SDS011;50862;51.642;7.964;2022-09-29T15:44:03;7.18;;;6.88;;
64483;SDS011;50862;51.642;7.964;2022-09-29T15:46:47;6.95;;;6.60;;
64483;SDS011;50862;51.642;7.964;2022-09-29T15:49:17;6.47;;;6.13;;
64483;SDS011;50862;51.642;7.964;2022-09-29T15:51:53;7.53;;;7.13;;
64483;SDS011;50862;51.642;7.964;2022-09-29T15:54:23;6.50;;;6.25;;
64483;SDS011;50862;51.642;7.964;2022-09-29T15:56:55;8.00;;;7.70;;
64483;SDS011;50862;51.642;7.964;2022-09-29T15:59:43;8.52;;;8.02;;
64483;SDS011;50862;51.642;7.964;2022-09-29T16:02:22;7.57;;;7.28;;
64483;SDS011;50862;51.642;7.964;2022-09-29T16:04:55;7.22;;;6.72;;
64483;SDS011;50862;51.642;7.964;2022-09-29T16:07:25;7.25;;;6.95;;